Terminal Aerodrome Forecast
Issued by NWS

Home | Current Version | Previous Version | Text Only | Print | Product List | Glossary On
Versions: 1 2 3 4 5 6 7 8 9 10 11 12 13 14 15 16 17 18 19 20 21
822
FTUS43 KDTX 222320
TAFDET
TAF
KDET 222320Z 2300/2324 VRB04KT P6SM BKN045 BKN060
     FM230300 02003KT 4SM BR SCT012 BKN040
     FM230800 04003KT 2SM BR OVC008
     FM231400 14005KT P6SM OVC018
     FM231800 17006KT P6SM SCT028 BKN040 PROB30 2319/2322 4SM -TSRA
      SCT028CB BKN040=

USA.gov is the U.S. government's official web portal to all federal, state and local government web resources and services.